KFAT/FAT METAR and TAF weather

Enter ICAO airport designator
Station Type Date Time Source
KFAT METAR 2020/01/24 08:53 UTC NOAA

KFAT 240853Z 34003KT 5SM BR SCT130 BKN150 OVC200 11/09 A3016 RMK AO2 SLP211 T01060089 50001


Station Type Date Time Source
KFAT Decoded METAR 2020/01/24 08:53 UTC NOAA

FRESNO AIR TERMINAL, CA, United States (KFAT) 36-47N 119-43W 104M
Jan 24, 2020 - 03:53 AM EST / 2020.01.24 0853 UTC
Wind: from the NNW (340 degrees) at 3 MPH (3 KT):0
Visibility: 5 mile(s):0
Sky conditions: overcast
Weather: mist
Temperature: 51.1 F (10.6 C)
Dew Point: 48.0 F (8.9 C)
Relative Humidity: 89%
Pressure (altimeter): 30.16 in. Hg (1021 hPa)
Pressure tendency: 0.00 inches (0.1 hPa) higher than three hours ago
ob: KFAT 240853Z 34003KT 5SM BR SCT130 BKN150 OVC200 11/09 A3016 RMK AO2 SLP211 T01060089 50001
cycle: 9

Station Type Date Time Source
KFAT TAF 2020/01/24 07:59 UTC NOAA

TAF
AMD KFAT 240659Z 2407/2506 VRB03KT P6SM BKN150
FM240900 01002KT 4SM BR SCT200
FM241100 31002KT 1/4SM FG OVC001
FM241800 31003KT 2SM BR BKN005
FM242000 31005KT P6SM SCT200

Example: see airport list